sensor_id;sensor_type;location;lat;lon;timestamp;P1;durP1;ratioP1;P2;durP2;ratioP2
26656;SDS011;14279;50.010;8.260;2023-06-14T00:00:30;8.70;;;4.27;;
26656;SDS011;14279;50.010;8.260;2023-06-14T00:02:56;8.83;;;4.50;;
26656;SDS011;14279;50.010;8.260;2023-06-14T00:05:22;5.30;;;4.20;;
26656;SDS011;14279;50.010;8.260;2023-06-14T00:07:48;5.97;;;4.20;;
26656;SDS011;14279;50.010;8.260;2023-06-14T00:10:14;7.43;;;4.40;;
26656;SDS011;14279;50.010;8.260;2023-06-14T00:12:39;10.27;;;4.33;;
26656;SDS011;14279;50.010;8.260;2023-06-14T00:15:05;8.70;;;4.60;;
26656;SDS011;14279;50.010;8.260;2023-06-14T00:17:32;10.60;;;4.77;;
26656;SDS011;14279;50.010;8.260;2023-06-14T00:20:02;6.50;;;3.80;;
26656;SDS011;14279;50.010;8.260;2023-06-14T00:22:33;6.20;;;4.37;;
26656;SDS011;14279;50.010;8.260;2023-06-14T00:24:59;7.90;;;4.63;;
26656;SDS011;14279;50.010;8.260;2023-06-14T00:27:24;7.70;;;4.20;;
26656;SDS011;14279;50.010;8.260;2023-06-14T00:29:50;7.63;;;4.20;;
26656;SDS011;14279;50.010;8.260;2023-06-14T00:32:16;8.23;;;4.27;;
26656;SDS011;14279;50.010;8.260;2023-06-14T00:34:41;14.57;;;4.17;;
26656;SDS011;14279;50.010;8.260;2023-06-14T00:37:06;11.23;;;4.20;;
26656;SDS011;14279;50.010;8.260;2023-06-14T00:39:31;12.30;;;4.40;;
26656;SDS011;14279;50.010;8.260;2023-06-14T00:41:57;6.23;;;4.10;;
26656;SDS011;14279;50.010;8.260;2023-06-14T00:44:22;6.00;;;4.40;;
26656;SDS011;14279;50.010;8.260;2023-06-14T00:46:48;5.20;;;4.13;;
26656;SDS011;14279;50.010;8.260;2023-06-14T00:49:14;8.40;;;4.30;;
26656;SDS011;14279;50.010;8.260;2023-06-14T00:51:41;6.67;;;4.40;;
26656;SDS011;14279;50.010;8.260;2023-06-14T00:54:07;5.73;;;3.70;;
26656;SDS011;14279;50.010;8.260;2023-06-14T00:56:32;6.13;;;4.27;;
26656;SDS011;14279;50.010;8.260;2023-06-14T00:58:58;9.87;;;4.13;;
26656;SDS011;14279;50.010;8.260;2023-06-14T01:01:23;7.57;;;4.50;;
26656;SDS011;14279;50.010;8.260;2023-06-14T01:03:49;6.47;;;4.57;;
26656;SDS011;14279;50.010;8.260;2023-06-14T01:08:57;4.43;;;3.67;;
26656;SDS011;14279;50.010;8.260;2023-06-14T01:11:32;6.23;;;3.87;;
26656;SDS011;14279;50.010;8.260;2023-06-14T01:14:10;7.60;;;4.10;;
26656;SDS011;14279;50.010;8.260;2023-06-14T01:16:38;9.70;;;4.00;;
26656;SDS011;14279;50.010;8.260;2023-06-14T01:19:05;4.30;;;3.90;;
26656;SDS011;14279;50.010;8.260;2023-06-14T01:21:33;7.63;;;3.90;;
26656;SDS011;14279;50.010;8.260;2023-06-14T01:24:06;5.93;;;4.50;;
26656;SDS011;14279;50.010;8.260;2023-06-14T01:26:32;6.10;;;4.03;;
26656;SDS011;14279;50.010;8.260;2023-06-14T01:28:57;7.87;;;4.70;;
26656;SDS011;14279;50.010;8.260;2023-06-14T01:31:23;5.00;;;3.80;;
26656;SDS011;14279;50.010;8.260;2023-06-14T01:33:50;7.67;;;4.10;;
26656;SDS011;14279;50.010;8.260;2023-06-14T01:36:17;6.03;;;3.80;;
26656;SDS011;14279;50.010;8.260;2023-06-14T01:38:44;6.87;;;4.07;;
26656;SDS011;14279;50.010;8.260;2023-06-14T01:41:10;12.43;;;4.30;;
26656;SDS011;14279;50.010;8.260;2023-06-14T01:43:36;5.20;;;4.27;;
26656;SDS011;14279;50.010;8.260;2023-06-14T01:46:03;4.97;;;3.80;;
26656;SDS011;14279;50.010;8.260;2023-06-14T01:48:30;5.20;;;3.77;;
26656;SDS011;14279;50.010;8.260;2023-06-14T01:50:56;12.87;;;4.20;;
26656;SDS011;14279;50.010;8.260;2023-06-14T01:53:22;8.80;;;4.10;;
26656;SDS011;14279;50.010;8.260;2023-06-14T01:55:47;5.57;;;3.93;;
26656;SDS011;14279;50.010;8.260;2023-06-14T01:58:13;12.60;;;4.33;;
26656;SDS011;14279;50.010;8.260;2023-06-14T02:00:39;14.77;;;4.70;;
26656;SDS011;14279;50.010;8.260;2023-06-14T02:03:05;10.57;;;4.37;;
26656;SDS011;14279;50.010;8.260;2023-06-14T02:05:30;3.90;;;3.37;;
26656;SDS011;14279;50.010;8.260;2023-06-14T02:07:56;7.23;;;3.83;;
26656;SDS011;14279;50.010;8.260;2023-06-14T02:10:21;7.17;;;4.40;;
26656;SDS011;14279;50.010;8.260;2023-06-14T02:12:47;7.50;;;4.03;;
26656;SDS011;14279;50.010;8.260;2023-06-14T02:15:12;6.83;;;3.83;;
26656;SDS011;14279;50.010;8.260;2023-06-14T02:17:42;5.00;;;3.47;;
26656;SDS011;14279;50.010;8.260;2023-06-14T02:20:08;6.53;;;4.00;;
26656;SDS011;14279;50.010;8.260;2023-06-14T02:22:34;13.10;;;3.40;;
26656;SDS011;14279;50.010;8.260;2023-06-14T02:24:59;7.20;;;3.73;;
26656;SDS011;14279;50.010;8.260;2023-06-14T02:27:25;9.20;;;4.17;;
26656;SDS011;14279;50.010;8.260;2023-06-14T02:29:50;7.00;;;3.50;;
26656;SDS011;14279;50.010;8.260;2023-06-14T02:32:15;8.23;;;4.17;;
26656;SDS011;14279;50.010;8.260;2023-06-14T02:34:41;10.23;;;3.67;;
26656;SDS011;14279;50.010;8.260;2023-06-14T02:37:06;10.30;;;3.43;;
26656;SDS011;14279;50.010;8.260;2023-06-14T02:39:32;5.00;;;4.20;;
26656;SDS011;14279;50.010;8.260;2023-06-14T02:41:57;5.97;;;4.00;;
26656;SDS011;14279;50.010;8.260;2023-06-14T02:44:25;5.20;;;3.43;;
26656;SDS011;14279;50.010;8.260;2023-06-14T02:46:54;10.17;;;4.20;;
26656;SDS011;14279;50.010;8.260;2023-06-14T02:49:20;7.87;;;3.73;;
26656;SDS011;14279;50.010;8.260;2023-06-14T02:51:46;10.23;;;4.33;;
26656;SDS011;14279;50.010;8.260;2023-06-14T02:54:11;12.50;;;4.30;;
26656;SDS011;14279;50.010;8.260;2023-06-14T02:56:37;12.00;;;3.90;;
26656;SDS011;14279;50.010;8.260;2023-06-14T02:59:02;3.93;;;3.53;;
26656;SDS011;14279;50.010;8.260;2023-06-14T03:01:27;8.57;;;4.30;;
26656;SDS011;14279;50.010;8.260;2023-06-14T03:03:59;7.30;;;3.70;;
26656;SDS011;14279;50.010;8.260;2023-06-14T03:06:26;7.07;;;3.87;;
26656;SDS011;14279;50.010;8.260;2023-06-14T03:08:54;7.60;;;3.87;;
26656;SDS011;14279;50.010;8.260;2023-06-14T03:11:19;8.00;;;3.43;;
26656;SDS011;14279;50.010;8.260;2023-06-14T03:13:45;8.40;;;4.10;;
26656;SDS011;14279;50.010;8.260;2023-06-14T03:16:11;7.20;;;3.93;;
26656;SDS011;14279;50.010;8.260;2023-06-14T03:18:37;13.00;;;4.77;;
26656;SDS011;14279;50.010;8.260;2023-06-14T03:21:02;4.20;;;3.53;;
26656;SDS011;14279;50.010;8.260;2023-06-14T03:23:28;7.80;;;4.00;;
26656;SDS011;14279;50.010;8.260;2023-06-14T03:25:53;13.63;;;4.50;;
26656;SDS011;14279;50.010;8.260;2023-06-14T03:28:18;10.87;;;3.63;;
26656;SDS011;14279;50.010;8.260;2023-06-14T03:30:43;14.63;;;3.90;;
26656;SDS011;14279;50.010;8.260;2023-06-14T03:33:09;9.47;;;4.60;;
26656;SDS011;14279;50.010;8.260;2023-06-14T03:35:34;12.23;;;3.73;;
26656;SDS011;14279;50.010;8.260;2023-06-14T03:38:00;10.87;;;4.23;;
26656;SDS011;14279;50.010;8.260;2023-06-14T03:40:25;7.60;;;3.67;;
26656;SDS011;14279;50.010;8.260;2023-06-14T03:42:52;12.23;;;4.00;;
26656;SDS011;14279;50.010;8.260;2023-06-14T03:45:18;5.93;;;4.00;;
26656;SDS011;14279;50.010;8.260;2023-06-14T03:47:43;8.23;;;3.30;;
26656;SDS011;14279;50.010;8.260;2023-06-14T03:50:09;5.73;;;3.73;;
26656;SDS011;14279;50.010;8.260;2023-06-14T03:52:34;14.40;;;4.30;;
26656;SDS011;14279;50.010;8.260;2023-06-14T03:55:00;12.23;;;3.87;;
26656;SDS011;14279;50.010;8.260;2023-06-14T03:57:25;10.80;;;4.10;;
26656;SDS011;14279;50.010;8.260;2023-06-14T03:59:51;5.87;;;3.33;;
26656;SDS011;14279;50.010;8.260;2023-06-14T04:02:16;9.20;;;4.20;;
26656;SDS011;14279;50.010;8.260;2023-06-14T04:04:42;7.03;;;3.40;;
26656;SDS011;14279;50.010;8.260;2023-06-14T04:07:11;8.63;;;3.90;;
26656;SDS011;14279;50.010;8.260;2023-06-14T04:09:37;6.53;;;4.00;;
26656;SDS011;14279;50.010;8.260;2023-06-14T04:12:04;7.30;;;3.80;;
26656;SDS011;14279;50.010;8.260;2023-06-14T04:14:30;7.27;;;4.00;;
26656;SDS011;14279;50.010;8.260;2023-06-14T04:16:55;16.30;;;5.07;;
26656;SDS011;14279;50.010;8.260;2023-06-14T04:19:21;9.97;;;4.27;;
26656;SDS011;14279;50.010;8.260;2023-06-14T04:21:46;8.57;;;3.70;;
26656;SDS011;14279;50.010;8.260;2023-06-14T04:24:11;6.53;;;3.60;;
26656;SDS011;14279;50.010;8.260;2023-06-14T04:26:44;9.27;;;4.10;;
26656;SDS011;14279;50.010;8.260;2023-06-14T04:29:12;8.13;;;3.87;;
26656;SDS011;14279;50.010;8.260;2023-06-14T04:31:45;7.40;;;3.97;;
26656;SDS011;14279;50.010;8.260;2023-06-14T04:34:11;13.23;;;4.20;;
26656;SDS011;14279;50.010;8.260;2023-06-14T04:36:40;7.30;;;4.40;;
26656;SDS011;14279;50.010;8.260;2023-06-14T04:39:14;7.10;;;4.33;;
26656;SDS011;14279;50.010;8.260;2023-06-14T04:41:42;8.90;;;3.83;;
26656;SDS011;14279;50.010;8.260;2023-06-14T04:44:08;13.33;;;3.90;;
26656;SDS011;14279;50.010;8.260;2023-06-14T04:46:35;5.83;;;4.37;;
26656;SDS011;14279;50.010;8.260;2023-06-14T04:49:09;13.40;;;4.33;;
26656;SDS011;14279;50.010;8.260;2023-06-14T04:51:35;16.13;;;4.30;;
26656;SDS011;14279;50.010;8.260;2023-06-14T04:54:01;15.90;;;4.13;;
26656;SDS011;14279;50.010;8.260;2023-06-14T04:56:28;5.53;;;4.20;;
26656;SDS011;14279;50.010;8.260;2023-06-14T04:58:54;8.10;;;3.73;;
26656;SDS011;14279;50.010;8.260;2023-06-14T05:01:21;13.03;;;4.37;;
26656;SDS011;14279;50.010;8.260;2023-06-14T05:03:48;12.27;;;4.47;;
26656;SDS011;14279;50.010;8.260;2023-06-14T05:06:14;9.33;;;4.30;;
26656;SDS011;14279;50.010;8.260;2023-06-14T05:08:40;10.30;;;4.00;;
26656;SDS011;14279;50.010;8.260;2023-06-14T05:11:05;8.23;;;4.57;;
26656;SDS011;14279;50.010;8.260;2023-06-14T05:13:30;7.93;;;3.47;;
26656;SDS011;14279;50.010;8.260;2023-06-14T05:15:57;6.67;;;4.20;;
26656;SDS011;14279;50.010;8.260;2023-06-14T05:18:23;10.77;;;4.70;;
26656;SDS011;14279;50.010;8.260;2023-06-14T05:20:50;6.57;;;3.90;;
26656;SDS011;14279;50.010;8.260;2023-06-14T05:23:15;10.73;;;4.37;;
26656;SDS011;14279;50.010;8.260;2023-06-14T05:25:44;8.50;;;4.30;;
26656;SDS011;14279;50.010;8.260;2023-06-14T05:28:10;12.00;;;4.30;;
26656;SDS011;14279;50.010;8.260;2023-06-14T05:30:36;11.27;;;3.93;;
26656;SDS011;14279;50.010;8.260;2023-06-14T05:33:02;5.97;;;3.63;;
26656;SDS011;14279;50.010;8.260;2023-06-14T05:35:28;9.53;;;2.90;;
26656;SDS011;14279;50.010;8.260;2023-06-14T05:37:54;6.33;;;3.37;;
26656;SDS011;14279;50.010;8.260;2023-06-14T05:40:19;11.03;;;4.00;;
26656;SDS011;14279;50.010;8.260;2023-06-14T05:42:44;6.27;;;3.40;;
26656;SDS011;14279;50.010;8.260;2023-06-14T05:45:09;8.93;;;4.40;;
26656;SDS011;14279;50.010;8.260;2023-06-14T05:47:35;8.40;;;3.23;;
26656;SDS011;14279;50.010;8.260;2023-06-14T05:50:00;7.00;;;3.13;;
26656;SDS011;14279;50.010;8.260;2023-06-14T05:52:25;6.23;;;2.80;;
26656;SDS011;14279;50.010;8.260;2023-06-14T05:54:51;5.50;;;3.43;;
26656;SDS011;14279;50.010;8.260;2023-06-14T05:57:16;6.67;;;3.50;;
26656;SDS011;14279;50.010;8.260;2023-06-14T05:59:41;8.13;;;3.13;;
26656;SDS011;14279;50.010;8.260;2023-06-14T06:02:07;6.60;;;3.37;;
26656;SDS011;14279;50.010;8.260;2023-06-14T06:04:32;10.80;;;3.67;;
26656;SDS011;14279;50.010;8.260;2023-06-14T06:06:57;8.73;;;3.27;;
26656;SDS011;14279;50.010;8.260;2023-06-14T06:09:22;12.53;;;3.30;;
26656;SDS011;14279;50.010;8.260;2023-06-14T06:11:48;7.70;;;3.17;;
26656;SDS011;14279;50.010;8.260;2023-06-14T06:14:13;11.33;;;3.53;;
26656;SDS011;14279;50.010;8.260;2023-06-14T06:16:38;13.90;;;3.03;;
26656;SDS011;14279;50.010;8.260;2023-06-14T06:19:03;8.90;;;3.40;;
26656;SDS011;14279;50.010;8.260;2023-06-14T06:21:29;7.23;;;3.30;;
26656;SDS011;14279;50.010;8.260;2023-06-14T06:23:54;4.70;;;3.20;;
26656;SDS011;14279;50.010;8.260;2023-06-14T06:26:21;12.63;;;3.43;;
26656;SDS011;14279;50.010;8.260;2023-06-14T06:28:47;11.73;;;3.53;;
26656;SDS011;14279;50.010;8.260;2023-06-14T06:31:12;5.90;;;3.40;;
26656;SDS011;14279;50.010;8.260;2023-06-14T06:33:37;3.80;;;3.20;;
26656;SDS011;14279;50.010;8.260;2023-06-14T06:36:04;9.93;;;3.80;;
26656;SDS011;14279;50.010;8.260;2023-06-14T06:38:30;11.70;;;4.13;;
26656;SDS011;14279;50.010;8.260;2023-06-14T06:40:55;7.50;;;3.63;;
26656;SDS011;14279;50.010;8.260;2023-06-14T06:43:21;16.63;;;3.80;;
26656;SDS011;14279;50.010;8.260;2023-06-14T06:45:47;13.33;;;3.60;;
26656;SDS011;14279;50.010;8.260;2023-06-14T06:48:12;8.10;;;3.90;;
26656;SDS011;14279;50.010;8.260;2023-06-14T06:50:38;4.73;;;3.17;;
26656;SDS011;14279;50.010;8.260;2023-06-14T06:53:03;6.53;;;3.17;;
26656;SDS011;14279;50.010;8.260;2023-06-14T06:55:28;9.10;;;3.53;;
26656;SDS011;14279;50.010;8.260;2023-06-14T06:57:54;4.97;;;3.70;;
26656;SDS011;14279;50.010;8.260;2023-06-14T07:00:19;4.20;;;3.47;;
26656;SDS011;14279;50.010;8.260;2023-06-14T07:02:46;7.60;;;3.20;;
26656;SDS011;14279;50.010;8.260;2023-06-14T07:05:11;8.23;;;3.40;;
26656;SDS011;14279;50.010;8.260;2023-06-14T07:07:37;12.20;;;2.83;;
26656;SDS011;14279;50.010;8.260;2023-06-14T07:10:03;5.73;;;2.90;;
26656;SDS011;14279;50.010;8.260;2023-06-14T07:12:30;6.60;;;3.27;;
26656;SDS011;14279;50.010;8.260;2023-06-14T07:14:58;4.40;;;2.60;;
26656;SDS011;14279;50.010;8.260;2023-06-14T07:17:23;8.60;;;3.60;;
26656;SDS011;14279;50.010;8.260;2023-06-14T07:19:48;8.63;;;3.07;;
26656;SDS011;14279;50.010;8.260;2023-06-14T07:22:14;4.27;;;2.97;;
26656;SDS011;14279;50.010;8.260;2023-06-14T07:24:39;8.60;;;3.50;;
26656;SDS011;14279;50.010;8.260;2023-06-14T07:27:05;6.50;;;3.10;;
26656;SDS011;14279;50.010;8.260;2023-06-14T07:29:30;13.90;;;3.00;;
26656;SDS011;14279;50.010;8.260;2023-06-14T07:31:56;3.20;;;2.77;;
26656;SDS011;14279;50.010;8.260;2023-06-14T07:34:21;2.93;;;2.57;;
26656;SDS011;14279;50.010;8.260;2023-06-14T07:36:46;15.60;;;3.43;;
26656;SDS011;14279;50.010;8.260;2023-06-14T07:39:12;4.00;;;2.83;;
26656;SDS011;14279;50.010;8.260;2023-06-14T07:41:37;4.60;;;2.73;;
26656;SDS011;14279;50.010;8.260;2023-06-14T07:44:03;2.80;;;2.30;;
26656;SDS011;14279;50.010;8.260;2023-06-14T07:46:28;5.87;;;2.60;;
26656;SDS011;14279;50.010;8.260;2023-06-14T07:48:53;15.03;;;3.00;;
26656;SDS011;14279;50.010;8.260;2023-06-14T07:51:19;16.00;;;3.07;;
26656;SDS011;14279;50.010;8.260;2023-06-14T07:53:44;10.37;;;2.60;;
26656;SDS011;14279;50.010;8.260;2023-06-14T07:56:09;13.13;;;3.13;;
26656;SDS011;14279;50.010;8.260;2023-06-14T07:58:35;12.10;;;2.97;;
26656;SDS011;14279;50.010;8.260;2023-06-14T08:01:00;7.27;;;2.50;;
26656;SDS011;14279;50.010;8.260;2023-06-14T08:03:28;5.80;;;2.40;;
26656;SDS011;14279;50.010;8.260;2023-06-14T08:05:54;12.23;;;2.83;;
26656;SDS011;14279;50.010;8.260;2023-06-14T08:08:20;3.53;;;2.43;;
26656;SDS011;14279;50.010;8.260;2023-06-14T08:10:45;8.70;;;2.67;;
26656;SDS011;14279;50.010;8.260;2023-06-14T08:13:10;9.00;;;2.57;;
26656;SDS011;14279;50.010;8.260;2023-06-14T08:15:35;5.27;;;2.57;;
26656;SDS011;14279;50.010;8.260;2023-06-14T08:18:01;14.53;;;2.20;;
26656;SDS011;14279;50.010;8.260;2023-06-14T08:20:26;9.63;;;2.90;;
26656;SDS011;14279;50.010;8.260;2023-06-14T08:22:52;4.17;;;2.53;;
26656;SDS011;14279;50.010;8.260;2023-06-14T08:25:21;6.93;;;2.37;;
26656;SDS011;14279;50.010;8.260;2023-06-14T08:27:46;12.40;;;2.33;;
26656;SDS011;14279;50.010;8.260;2023-06-14T08:30:12;9.30;;;2.40;;
26656;SDS011;14279;50.010;8.260;2023-06-14T08:32:37;5.90;;;2.37;;
26656;SDS011;14279;50.010;8.260;2023-06-14T08:35:03;3.97;;;2.60;;
26656;SDS011;14279;50.010;8.260;2023-06-14T08:37:31;3.07;;;2.07;;
26656;SDS011;14279;50.010;8.260;2023-06-14T08:39:58;11.90;;;2.70;;
26656;SDS011;14279;50.010;8.260;2023-06-14T08:42:23;4.90;;;2.70;;
26656;SDS011;14279;50.010;8.260;2023-06-14T08:44:49;10.87;;;2.70;;
26656;SDS011;14279;50.010;8.260;2023-06-14T08:47:14;2.17;;;1.97;;
26656;SDS011;14279;50.010;8.260;2023-06-14T08:49:41;3.73;;;2.60;;
26656;SDS011;14279;50.010;8.260;2023-06-14T08:52:10;2.37;;;2.17;;
26656;SDS011;14279;50.010;8.260;2023-06-14T08:54:37;6.33;;;2.63;;
26656;SDS011;14279;50.010;8.260;2023-06-14T08:57:08;2.47;;;2.10;;
26656;SDS011;14279;50.010;8.260;2023-06-14T08:59:37;7.67;;;2.20;;
26656;SDS011;14279;50.010;8.260;2023-06-14T09:02:10;4.63;;;1.83;;
26656;SDS011;14279;50.010;8.260;2023-06-14T09:04:38;3.00;;;1.77;;
26656;SDS011;14279;50.010;8.260;2023-06-14T09:07:04;4.50;;;1.90;;
26656;SDS011;14279;50.010;8.260;2023-06-14T09:09:31;3.40;;;2.07;;
26656;SDS011;14279;50.010;8.260;2023-06-14T09:11:57;2.90;;;1.60;;
26656;SDS011;14279;50.010;8.260;2023-06-14T09:14:25;12.50;;;2.10;;
26656;SDS011;14279;50.010;8.260;2023-06-14T09:16:53;5.77;;;1.83;;
26656;SDS011;14279;50.010;8.260;2023-06-14T09:19:23;6.40;;;1.73;;
26656;SDS011;14279;50.010;8.260;2023-06-14T09:21:50;2.83;;;1.90;;
26656;SDS011;14279;50.010;8.260;2023-06-14T09:24:17;4.53;;;2.03;;
26656;SDS011;14279;50.010;8.260;2023-06-14T09:26:43;1.90;;;1.70;;
26656;SDS011;14279;50.010;8.260;2023-06-14T09:29:09;5.23;;;1.97;;
26656;SDS011;14279;50.010;8.260;2023-06-14T09:31:34;4.20;;;2.03;;
26656;SDS011;14279;50.010;8.260;2023-06-14T09:34:01;6.73;;;1.50;;
26656;SDS011;14279;50.010;8.260;2023-06-14T09:36:27;5.13;;;1.97;;
26656;SDS011;14279;50.010;8.260;2023-06-14T09:38:53;2.13;;;1.93;;
26656;SDS011;14279;50.010;8.260;2023-06-14T09:41:19;2.43;;;1.70;;
26656;SDS011;14279;50.010;8.260;2023-06-14T09:43:44;3.63;;;1.80;;
26656;SDS011;14279;50.010;8.260;2023-06-14T09:46:11;2.50;;;1.50;;
26656;SDS011;14279;50.010;8.260;2023-06-14T09:48:37;6.17;;;2.30;;
26656;SDS011;14279;50.010;8.260;2023-06-14T09:51:04;7.40;;;1.70;;
26656;SDS011;14279;50.010;8.260;2023-06-14T09:53:31;2.90;;;1.77;;
26656;SDS011;14279;50.010;8.260;2023-06-14T09:56:01;4.50;;;1.63;;
26656;SDS011;14279;50.010;8.260;2023-06-14T09:58:26;2.47;;;1.77;;
26656;SDS011;14279;50.010;8.260;2023-06-14T10:00:53;3.63;;;1.73;;
26656;SDS011;14279;50.010;8.260;2023-06-14T10:03:25;6.33;;;2.00;;
26656;SDS011;14279;50.010;8.260;2023-06-14T10:05:53;1.83;;;1.70;;
26656;SDS011;14279;50.010;8.260;2023-06-14T10:08:22;11.93;;;3.30;;
26656;SDS011;14279;50.010;8.260;2023-06-14T10:10:51;3.53;;;1.77;;
26656;SDS011;14279;50.010;8.260;2023-06-14T10:13:16;2.13;;;1.90;;
26656;SDS011;14279;50.010;8.260;2023-06-14T10:15:47;3.93;;;1.63;;
26656;SDS011;14279;50.010;8.260;2023-06-14T10:18:24;1.70;;;1.60;;
26656;SDS011;14279;50.010;8.260;2023-06-14T10:21:15;1.67;;;1.40;;
26656;SDS011;14279;50.010;8.260;2023-06-14T10:23:45;5.90;;;2.10;;
26656;SDS011;14279;50.010;8.260;2023-06-14T10:26:17;5.00;;;1.80;;
26656;SDS011;14279;50.010;8.260;2023-06-14T10:28:46;2.43;;;1.80;;
26656;SDS011;14279;50.010;8.260;2023-06-14T10:31:22;1.57;;;1.47;;
26656;SDS011;14279;50.010;8.260;2023-06-14T10:33:55;2.90;;;1.70;;
26656;SDS011;14279;50.010;8.260;2023-06-14T10:39:10;2.17;;;1.73;;
26656;SDS011;14279;50.010;8.260;2023-06-14T10:41:36;5.10;;;1.73;;
26656;SDS011;14279;50.010;8.260;2023-06-14T10:46:40;3.37;;;1.90;;
26656;SDS011;14279;50.010;8.260;2023-06-14T10:49:10;5.70;;;1.70;;
26656;SDS011;14279;50.010;8.260;2023-06-14T10:51:40;1.50;;;1.40;;
26656;SDS011;14279;50.010;8.260;2023-06-14T10:54:16;2.43;;;1.33;;
26656;SDS011;14279;50.010;8.260;2023-06-14T10:56:49;1.50;;;1.40;;
26656;SDS011;14279;50.010;8.260;2023-06-14T10:59:16;6.70;;;1.83;;
26656;SDS011;14279;50.010;8.260;2023-06-14T11:04:50;1.70;;;1.50;;
26656;SDS011;14279;50.010;8.260;2023-06-14T11:07:30;4.50;;;2.00;;
26656;SDS011;14279;50.010;8.260;2023-06-14T11:12:47;4.50;;;1.60;;
26656;SDS011;14279;50.010;8.260;2023-06-14T11:15:13;1.60;;;1.50;;
26656;SDS011;14279;50.010;8.260;2023-06-14T11:17:39;1.63;;;1.53;;
26656;SDS011;14279;50.010;8.260;2023-06-14T11:20:13;3.40;;;1.67;;
26656;SDS011;14279;50.010;8.260;2023-06-14T11:22:44;4.00;;;1.53;;
26656;SDS011;14279;50.010;8.260;2023-06-14T11:25:10;2.20;;;2.00;;
26656;SDS011;14279;50.010;8.260;2023-06-14T11:27:39;3.87;;;1.90;;
26656;SDS011;14279;50.010;8.260;2023-06-14T11:30:06;9.13;;;1.70;;
26656;SDS011;14279;50.010;8.260;2023-06-14T11:32:32;1.77;;;1.67;;
26656;SDS011;14279;50.010;8.260;2023-06-14T11:34:57;3.73;;;1.90;;
26656;SDS011;14279;50.010;8.260;2023-06-14T11:37:25;1.60;;;1.50;;
26656;SDS011;14279;50.010;8.260;2023-06-14T11:39:51;3.53;;;1.73;;
26656;SDS011;14279;50.010;8.260;2023-06-14T11:42:16;5.50;;;1.70;;
26656;SDS011;14279;50.010;8.260;2023-06-14T11:44:41;5.13;;;2.17;;
26656;SDS011;14279;50.010;8.260;2023-06-14T11:47:07;3.90;;;1.83;;
26656;SDS011;14279;50.010;8.260;2023-06-14T11:49:35;1.80;;;1.70;;
26656;SDS011;14279;50.010;8.260;2023-06-14T11:52:01;3.97;;;2.27;;
26656;SDS011;14279;50.010;8.260;2023-06-14T11:54:26;2.77;;;1.90;;
26656;SDS011;14279;50.010;8.260;2023-06-14T11:56:52;1.73;;;1.50;;
26656;SDS011;14279;50.010;8.260;2023-06-14T11:59:17;3.20;;;2.13;;
26656;SDS011;14279;50.010;8.260;2023-06-14T12:01:43;2.47;;;2.17;;
26656;SDS011;14279;50.010;8.260;2023-06-14T12:04:08;3.83;;;1.77;;
26656;SDS011;14279;50.010;8.260;2023-06-14T12:06:33;3.90;;;1.73;;
26656;SDS011;14279;50.010;8.260;2023-06-14T12:09:04;2.80;;;2.00;;
26656;SDS011;14279;50.010;8.260;2023-06-14T12:11:32;2.27;;;2.07;;
26656;SDS011;14279;50.010;8.260;2023-06-14T12:13:59;1.83;;;1.73;;
26656;SDS011;14279;50.010;8.260;2023-06-14T12:16:29;8.20;;;2.33;;
26656;SDS011;14279;50.010;8.260;2023-06-14T12:18:56;3.60;;;2.00;;
26656;SDS011;14279;50.010;8.260;2023-06-14T12:21:26;3.60;;;2.30;;
26656;SDS011;14279;50.010;8.260;2023-06-14T12:23:53;6.77;;;2.30;;
26656;SDS011;14279;50.010;8.260;2023-06-14T12:26:18;4.43;;;1.97;;
26656;SDS011;14279;50.010;8.260;2023-06-14T12:28:45;2.80;;;1.93;;
26656;SDS011;14279;50.010;8.260;2023-06-14T12:31:11;2.60;;;2.30;;
26656;SDS011;14279;50.010;8.260;2023-06-14T12:33:38;2.70;;;2.00;;
26656;SDS011;14279;50.010;8.260;2023-06-14T12:36:05;2.73;;;2.30;;
26656;SDS011;14279;50.010;8.260;2023-06-14T12:38:32;4.30;;;2.00;;
26656;SDS011;14279;50.010;8.260;2023-06-14T12:40:57;7.77;;;2.47;;
26656;SDS011;14279;50.010;8.260;2023-06-14T12:43:23;10.27;;;2.73;;
26656;SDS011;14279;50.010;8.260;2023-06-14T12:45:48;4.40;;;1.83;;
26656;SDS011;14279;50.010;8.260;2023-06-14T12:48:13;2.87;;;2.13;;
26656;SDS011;14279;50.010;8.260;2023-06-14T12:50:40;2.90;;;2.00;;
26656;SDS011;14279;50.010;8.260;2023-06-14T12:53:05;3.63;;;2.63;;
26656;SDS011;14279;50.010;8.260;2023-06-14T12:55:30;4.20;;;1.80;;
26656;SDS011;14279;50.010;8.260;2023-06-14T12:57:56;6.10;;;2.10;;
26656;SDS011;14279;50.010;8.260;2023-06-14T13:00:22;5.03;;;2.13;;
26656;SDS011;14279;50.010;8.260;2023-06-14T13:02:47;5.30;;;1.93;;
26656;SDS011;14279;50.010;8.260;2023-06-14T13:05:13;6.27;;;1.83;;
26656;SDS011;14279;50.010;8.260;2023-06-14T13:07:38;2.13;;;1.97;;
26656;SDS011;14279;50.010;8.260;2023-06-14T13:10:03;4.73;;;2.03;;
26656;SDS011;14279;50.010;8.260;2023-06-14T13:12:29;4.20;;;2.27;;
26656;SDS011;14279;50.010;8.260;2023-06-14T13:14:54;5.07;;;2.07;;
26656;SDS011;14279;50.010;8.260;2023-06-14T13:17:19;5.80;;;1.70;;
26656;SDS011;14279;50.010;8.260;2023-06-14T13:19:45;3.73;;;2.00;;
26656;SDS011;14279;50.010;8.260;2023-06-14T13:22:10;3.63;;;1.63;;
26656;SDS011;14279;50.010;8.260;2023-06-14T13:24:35;4.20;;;2.10;;
26656;SDS011;14279;50.010;8.260;2023-06-14T13:27:00;3.27;;;2.40;;
26656;SDS011;14279;50.010;8.260;2023-06-14T13:29:26;3.27;;;1.87;;
26656;SDS011;14279;50.010;8.260;2023-06-14T13:31:52;2.40;;;2.07;;
26656;SDS011;14279;50.010;8.260;2023-06-14T13:34:18;9.43;;;2.03;;
26656;SDS011;14279;50.010;8.260;2023-06-14T13:36:43;3.97;;;2.10;;
26656;SDS011;14279;50.010;8.260;2023-06-14T13:39:08;5.43;;;2.00;;
26656;SDS011;14279;50.010;8.260;2023-06-14T13:41:33;2.80;;;2.10;;
26656;SDS011;14279;50.010;8.260;2023-06-14T13:44:00;3.57;;;2.40;;
26656;SDS011;14279;50.010;8.260;2023-06-14T13:46:25;2.20;;;2.00;;
26656;SDS011;14279;50.010;8.260;2023-06-14T13:48:51;3.53;;;2.23;;
26656;SDS011;14279;50.010;8.260;2023-06-14T13:51:16;3.87;;;2.10;;
26656;SDS011;14279;50.010;8.260;2023-06-14T13:53:45;4.70;;;2.50;;
26656;SDS011;14279;50.010;8.260;2023-06-14T13:56:11;22.47;;;2.57;;
26656;SDS011;14279;50.010;8.260;2023-06-14T13:58:37;2.60;;;2.40;;
26656;SDS011;14279;50.010;8.260;2023-06-14T14:01:03;7.37;;;2.30;;
26656;SDS011;14279;50.010;8.260;2023-06-14T14:03:28;5.80;;;2.17;;
26656;SDS011;14279;50.010;8.260;2023-06-14T14:05:53;13.20;;;2.47;;
26656;SDS011;14279;50.010;8.260;2023-06-14T14:08:18;2.60;;;2.30;;
26656;SDS011;14279;50.010;8.260;2023-06-14T14:10:44;3.07;;;2.60;;
26656;SDS011;14279;50.010;8.260;2023-06-14T14:13:09;2.37;;;2.10;;
26656;SDS011;14279;50.010;8.260;2023-06-14T14:15:34;2.37;;;2.17;;
26656;SDS011;14279;50.010;8.260;2023-06-14T14:17:59;3.60;;;2.20;;
26656;SDS011;14279;50.010;8.260;2023-06-14T14:20:25;9.20;;;2.40;;
26656;SDS011;14279;50.010;8.260;2023-06-14T14:22:50;4.43;;;2.00;;
26656;SDS011;14279;50.010;8.260;2023-06-14T14:25:15;3.60;;;2.13;;
26656;SDS011;14279;50.010;8.260;2023-06-14T14:27:41;14.57;;;2.57;;
26656;SDS011;14279;50.010;8.260;2023-06-14T14:30:06;6.40;;;2.90;;
26656;SDS011;14279;50.010;8.260;2023-06-14T14:32:32;2.53;;;2.20;;
26656;SDS011;14279;50.010;8.260;2023-06-14T14:34:58;3.90;;;2.33;;
26656;SDS011;14279;50.010;8.260;2023-06-14T14:37:23;9.37;;;2.60;;
26656;SDS011;14279;50.010;8.260;2023-06-14T14:39:48;2.80;;;2.20;;
26656;SDS011;14279;50.010;8.260;2023-06-14T14:42:14;3.00;;;2.00;;
26656;SDS011;14279;50.010;8.260;2023-06-14T14:44:39;3.13;;;2.00;;
26656;SDS011;14279;50.010;8.260;2023-06-14T14:47:05;5.37;;;2.37;;
26656;SDS011;14279;50.010;8.260;2023-06-14T14:49:34;7.43;;;2.27;;
26656;SDS011;14279;50.010;8.260;2023-06-14T14:51:59;5.40;;;2.30;;
26656;SDS011;14279;50.010;8.260;2023-06-14T14:54:24;4.80;;;2.13;;